Salida, CO (81201)

9:27 PM MDT on July 24, 2016 (GMT -0600)
CR 141 | | Change Station

Elev 7195 ft 38.54 °N, 106.02 °W | Updated 1 second ago

Mostly Cloudy
Mostly Cloudy
74.5 °F
Feels Like 77 °F
N
6.9
Wind Variable Wind from ESE
Gusts 13.0 mph

Today
High -- | Low -- °F
--% Chance of Precip.
Yesterday
High -- | Low -- °F
Precip. -- in
Pressure 30.42 in
Visibility 10.0 miles
Clouds Mostly Cloudy 12000 ft
Heat Index 77 °F
Dew Point 45 °F
Humidity 35%
Rainfall 0.00 in
Snow Depth Not available.
5:59 AM 8:21 PM
Waning Gibbous, 70% visible
METAR KANK 250315Z AUTO 10012G19KT 10SM BKN120 24/06 A3042 RMK AO1 T02380055
Pressure 30.42 in
Visibility 10.0 miles
Clouds Mostly Cloudy 12000 ft
Heat Index 77 °F
Dew Point 45 °F
Humidity 35%
Rainfall 0.00 in
Snow Depth Not available.
5:59 AM 8:21 PM
Waning Gibbous, 70% visible
METAR KANK 250315Z AUTO 10012G19KT 10SM BKN120 24/06 A3042 RMK AO1 T02380055

10-Day Weather Forecast

Almanac

Astronomy

Jul. 24, 2016 Rise Set
Actual Time
Civil Twilight
Nautical Twilight
Astronomical Twilight
Moon
Length of Visible Light
Length of Day
Tomorrow will be .
, % of the Moon is Illuminated

Today's Extremes

State Highs State Lows

Community

WunderPhotos

Upload Photos

1,927,256 photos uploaded!

WunderBlog® & News

Nearby

Air Quality

  Air Quality AQ Index Pollutant
Not available.

Snow Depth

Station Depth Elevation

Earthquake Activity

City Distance Mag. Time & Date
Minimum magnitude displayed is 2.5.

Coastal Water Temperatures

Place Temperature

Stations

Nearby Weather Stations

Station Location Temp. Windchill Dew Point Humidity Wind Precip. Elev Updated Type
                   

Watches & Warnings

There are currently no watches in effect.